sensor_id;sensor_type;location;lat;lon;timestamp;P1;durP1;ratioP1;P2;durP2;ratioP2
42186;SDS011;27858;51.414;0.018;2023-02-28T00:01:12;3.33;;;1.13;;
42186;SDS011;27858;51.414;0.018;2023-02-28T00:03:39;2.45;;;1.38;;
42186;SDS011;27858;51.414;0.018;2023-02-28T00:06:07;4.93;;;1.75;;
42186;SDS011;27858;51.414;0.018;2023-02-28T00:08:36;6.32;;;1.23;;
42186;SDS011;27858;51.414;0.018;2023-02-28T00:11:04;5.32;;;1.92;;
42186;SDS011;27858;51.414;0.018;2023-02-28T00:13:34;3.03;;;2.05;;
42186;SDS011;27858;51.414;0.018;2023-02-28T00:16:11;4.38;;;1.60;;
42186;SDS011;27858;51.414;0.018;2023-02-28T00:18:41;4.75;;;1.88;;
42186;SDS011;27858;51.414;0.018;2023-02-28T00:21:08;2.40;;;1.33;;
42186;SDS011;27858;51.414;0.018;2023-02-28T00:23:35;5.60;;;1.50;;
42186;SDS011;27858;51.414;0.018;2023-02-28T00:26:02;5.25;;;1.17;;
42186;SDS011;27858;51.414;0.018;2023-02-28T00:28:30;6.95;;;1.75;;
42186;SDS011;27858;51.414;0.018;2023-02-28T00:30:57;11.40;;;3.35;;
42186;SDS011;27858;51.414;0.018;2023-02-28T00:33:23;5.47;;;1.88;;
42186;SDS011;27858;51.414;0.018;2023-02-28T00:35:51;8.63;;;1.73;;
42186;SDS011;27858;51.414;0.018;2023-02-28T00:38:18;6.95;;;2.25;;
42186;SDS011;27858;51.414;0.018;2023-02-28T00:40:45;4.90;;;2.53;;
42186;SDS011;27858;51.414;0.018;2023-02-28T00:43:12;6.15;;;4.10;;
42186;SDS011;27858;51.414;0.018;2023-02-28T00:45:39;5.97;;;2.63;;
42186;SDS011;27858;51.414;0.018;2023-02-28T00:48:06;3.90;;;1.83;;
42186;SDS011;27858;51.414;0.018;2023-02-28T00:50:33;6.30;;;2.08;;
42186;SDS011;27858;51.414;0.018;2023-02-28T00:52:59;4.93;;;1.77;;
42186;SDS011;27858;51.414;0.018;2023-02-28T00:55:26;5.35;;;1.55;;
42186;SDS011;27858;51.414;0.018;2023-02-28T00:57:53;8.75;;;1.75;;
42186;SDS011;27858;51.414;0.018;2023-02-28T05:00:39;2.42;;;1.45;;
42186;SDS011;27858;51.414;0.018;2023-02-28T05:03:06;4.75;;;1.83;;
42186;SDS011;27858;51.414;0.018;2023-02-28T05:05:33;6.10;;;1.05;;
42186;SDS011;27858;51.414;0.018;2023-02-28T05:07:59;3.05;;;1.50;;
42186;SDS011;27858;51.414;0.018;2023-02-28T05:10:26;5.80;;;1.77;;
42186;SDS011;27858;51.414;0.018;2023-02-28T05:12:53;2.28;;;1.10;;
42186;SDS011;27858;51.414;0.018;2023-02-28T05:15:20;4.25;;;1.42;;
42186;SDS011;27858;51.414;0.018;2023-02-28T05:17:46;3.33;;;1.42;;
42186;SDS011;27858;51.414;0.018;2023-02-28T05:20:13;2.58;;;1.40;;
42186;SDS011;27858;51.414;0.018;2023-02-28T05:22:41;2.53;;;1.25;;
42186;SDS011;27858;51.414;0.018;2023-02-28T05:25:13;2.13;;;0.80;;
42186;SDS011;27858;51.414;0.018;2023-02-28T05:27:46;3.47;;;1.00;;
42186;SDS011;27858;51.414;0.018;2023-02-28T05:30:13;3.17;;;1.65;;
42186;SDS011;27858;51.414;0.018;2023-02-28T05:32:40;5.38;;;2.00;;
42186;SDS011;27858;51.414;0.018;2023-02-28T05:35:11;6.43;;;1.80;;
42186;SDS011;27858;51.414;0.018;2023-02-28T05:37:39;4.13;;;1.20;;
42186;SDS011;27858;51.414;0.018;2023-02-28T05:40:06;4.78;;;1.55;;
42186;SDS011;27858;51.414;0.018;2023-02-28T05:42:36;2.13;;;1.20;;
42186;SDS011;27858;51.414;0.018;2023-02-28T05:45:04;2.95;;;1.38;;
42186;SDS011;27858;51.414;0.018;2023-02-28T05:47:31;3.38;;;1.52;;
42186;SDS011;27858;51.414;0.018;2023-02-28T05:49:58;2.70;;;1.40;;
42186;SDS011;27858;51.414;0.018;2023-02-28T05:52:24;2.67;;;1.48;;
42186;SDS011;27858;51.414;0.018;2023-02-28T05:54:51;2.60;;;1.42;;
42186;SDS011;27858;51.414;0.018;2023-02-28T05:57:18;6.28;;;1.75;;
42186;SDS011;27858;51.414;0.018;2023-02-28T05:59:50;5.78;;;1.67;;
42186;SDS011;27858;51.414;0.018;2023-02-28T06:02:17;4.10;;;1.63;;
42186;SDS011;27858;51.414;0.018;2023-02-28T06:04:44;3.88;;;1.70;;
42186;SDS011;27858;51.414;0.018;2023-02-28T06:07:11;3.25;;;1.98;;
42186;SDS011;27858;51.414;0.018;2023-02-28T06:09:38;4.38;;;1.85;;
42186;SDS011;27858;51.414;0.018;2023-02-28T06:12:06;5.65;;;1.95;;
42186;SDS011;27858;51.414;0.018;2023-02-28T06:14:35;6.75;;;2.13;;
42186;SDS011;27858;51.414;0.018;2023-02-28T06:17:02;5.40;;;2.35;;
42186;SDS011;27858;51.414;0.018;2023-02-28T06:19:29;4.65;;;2.05;;
42186;SDS011;27858;51.414;0.018;2023-02-28T06:21:56;6.80;;;2.58;;
42186;SDS011;27858;51.414;0.018;2023-02-28T06:24:24;5.68;;;1.95;;
42186;SDS011;27858;51.414;0.018;2023-02-28T06:26:54;15.57;;;2.08;;
42186;SDS011;27858;51.414;0.018;2023-02-28T06:29:21;6.93;;;2.58;;
42186;SDS011;27858;51.414;0.018;2023-02-28T06:31:48;2.88;;;1.80;;
42186;SDS011;27858;51.414;0.018;2023-02-28T06:34:15;6.35;;;3.05;;
42186;SDS011;27858;51.414;0.018;2023-02-28T06:36:42;4.18;;;2.25;;
42186;SDS011;27858;51.414;0.018;2023-02-28T06:39:09;5.05;;;1.55;;
42186;SDS011;27858;51.414;0.018;2023-02-28T06:41:36;3.55;;;1.88;;
42186;SDS011;27858;51.414;0.018;2023-02-28T06:44:19;3.65;;;1.80;;
42186;SDS011;27858;51.414;0.018;2023-02-28T06:46:46;3.78;;;2.17;;
42186;SDS011;27858;51.414;0.018;2023-02-28T06:49:13;3.35;;;2.30;;
42186;SDS011;27858;51.414;0.018;2023-02-28T06:51:41;4.18;;;1.90;;
42186;SDS011;27858;51.414;0.018;2023-02-28T06:54:11;7.28;;;2.42;;
42186;SDS011;27858;51.414;0.018;2023-02-28T06:56:39;5.00;;;2.53;;
42186;SDS011;27858;51.414;0.018;2023-02-28T06:59:06;4.63;;;1.80;;
42186;SDS011;27858;51.414;0.018;2023-02-28T07:01:32;5.35;;;2.25;;
42186;SDS011;27858;51.414;0.018;2023-02-28T07:04:00;6.05;;;2.20;;
42186;SDS011;27858;51.414;0.018;2023-02-28T07:06:27;4.75;;;2.30;;
42186;SDS011;27858;51.414;0.018;2023-02-28T07:08:54;6.60;;;2.22;;
42186;SDS011;27858;51.414;0.018;2023-02-28T07:11:22;4.22;;;2.03;;
42186;SDS011;27858;51.414;0.018;2023-02-28T07:13:55;3.58;;;2.53;;
42186;SDS011;27858;51.414;0.018;2023-02-28T07:16:23;4.25;;;2.50;;
42186;SDS011;27858;51.414;0.018;2023-02-28T07:18:54;9.55;;;3.00;;
42186;SDS011;27858;51.414;0.018;2023-02-28T07:21:22;6.85;;;2.72;;
42186;SDS011;27858;51.414;0.018;2023-02-28T07:23:49;9.40;;;2.42;;
42186;SDS011;27858;51.414;0.018;2023-02-28T07:26:17;4.00;;;2.90;;
42186;SDS011;27858;51.414;0.018;2023-02-28T07:28:45;5.75;;;2.88;;
42186;SDS011;27858;51.414;0.018;2023-02-28T07:31:13;5.35;;;2.22;;
42186;SDS011;27858;51.414;0.018;2023-02-28T07:33:41;2.75;;;1.98;;
42186;SDS011;27858;51.414;0.018;2023-02-28T07:36:12;3.38;;;1.85;;
42186;SDS011;27858;51.414;0.018;2023-02-28T07:38:42;4.45;;;2.45;;
42186;SDS011;27858;51.414;0.018;2023-02-28T07:41:14;4.22;;;2.60;;
42186;SDS011;27858;51.414;0.018;2023-02-28T07:43:41;3.22;;;1.70;;
42186;SDS011;27858;51.414;0.018;2023-02-28T07:46:09;8.70;;;2.55;;
42186;SDS011;27858;51.414;0.018;2023-02-28T07:48:38;6.45;;;2.72;;
42186;SDS011;27858;51.414;0.018;2023-02-28T07:51:04;3.53;;;2.25;;
42186;SDS011;27858;51.414;0.018;2023-02-28T07:53:31;4.88;;;2.40;;
42186;SDS011;27858;51.414;0.018;2023-02-28T07:55:59;4.05;;;2.45;;
42186;SDS011;27858;51.414;0.018;2023-02-28T07:58:27;5.20;;;2.28;;
42186;SDS011;27858;51.414;0.018;2023-02-28T08:00:55;2.75;;;1.90;;
42186;SDS011;27858;51.414;0.018;2023-02-28T08:03:24;3.00;;;1.60;;
42186;SDS011;27858;51.414;0.018;2023-02-28T08:05:51;6.05;;;3.35;;
42186;SDS011;27858;51.414;0.018;2023-02-28T08:08:18;7.78;;;2.58;;
42186;SDS011;27858;51.414;0.018;2023-02-28T08:10:45;2.75;;;1.70;;
42186;SDS011;27858;51.414;0.018;2023-02-28T08:13:12;3.63;;;2.25;;
42186;SDS011;27858;51.414;0.018;2023-02-28T08:15:40;2.00;;;1.55;;
42186;SDS011;27858;51.414;0.018;2023-02-28T08:18:09;2.88;;;2.03;;
42186;SDS011;27858;51.414;0.018;2023-02-28T08:20:36;3.38;;;1.75;;
42186;SDS011;27858;51.414;0.018;2023-02-28T08:23:02;2.92;;;1.98;;
42186;SDS011;27858;51.414;0.018;2023-02-28T08:25:29;3.42;;;2.30;;
42186;SDS011;27858;51.414;0.018;2023-02-28T08:27:56;4.28;;;1.95;;
42186;SDS011;27858;51.414;0.018;2023-02-28T08:30:23;3.10;;;1.92;;
42186;SDS011;27858;51.414;0.018;2023-02-28T08:32:50;6.47;;;3.15;;
42186;SDS011;27858;51.414;0.018;2023-02-28T08:35:17;4.85;;;2.13;;
42186;SDS011;27858;51.414;0.018;2023-02-28T08:37:44;5.65;;;2.50;;
42186;SDS011;27858;51.414;0.018;2023-02-28T08:40:13;5.53;;;2.03;;
42186;SDS011;27858;51.414;0.018;2023-02-28T08:42:44;4.60;;;2.10;;
42186;SDS011;27858;51.414;0.018;2023-02-28T08:45:12;6.18;;;2.05;;
42186;SDS011;27858;51.414;0.018;2023-02-28T08:47:40;2.80;;;1.70;;
42186;SDS011;27858;51.414;0.018;2023-02-28T08:50:07;1.45;;;1.35;;
42186;SDS011;27858;51.414;0.018;2023-02-28T08:52:34;2.55;;;1.85;;
42186;SDS011;27858;51.414;0.018;2023-02-28T08:55:01;5.70;;;1.55;;
42186;SDS011;27858;51.414;0.018;2023-02-28T08:57:28;2.33;;;1.48;;
42186;SDS011;27858;51.414;0.018;2023-02-28T08:59:55;3.17;;;2.00;;
42186;SDS011;27858;51.414;0.018;2023-02-28T09:02:22;5.13;;;1.98;;
42186;SDS011;27858;51.414;0.018;2023-02-28T09:04:48;5.13;;;1.77;;
42186;SDS011;27858;51.414;0.018;2023-02-28T09:07:15;5.25;;;1.25;;
42186;SDS011;27858;51.414;0.018;2023-02-28T09:09:42;3.17;;;1.80;;
42186;SDS011;27858;51.414;0.018;2023-02-28T09:12:20;2.80;;;1.35;;
42186;SDS011;27858;51.414;0.018;2023-02-28T09:14:50;3.78;;;1.63;;
42186;SDS011;27858;51.414;0.018;2023-02-28T09:17:18;3.92;;;1.35;;
42186;SDS011;27858;51.414;0.018;2023-02-28T09:19:48;4.30;;;1.10;;
42186;SDS011;27858;51.414;0.018;2023-02-28T09:22:15;1.67;;;1.10;;
42186;SDS011;27858;51.414;0.018;2023-02-28T09:24:42;3.92;;;1.45;;
42186;SDS011;27858;51.414;0.018;2023-02-28T09:27:10;3.85;;;1.23;;
42186;SDS011;27858;51.414;0.018;2023-02-28T09:29:37;5.10;;;1.48;;
42186;SDS011;27858;51.414;0.018;2023-02-28T09:32:04;6.97;;;1.60;;
42186;SDS011;27858;51.414;0.018;2023-02-28T09:34:32;4.55;;;1.63;;
42186;SDS011;27858;51.414;0.018;2023-02-28T09:37:05;1.75;;;0.85;;
42186;SDS011;27858;51.414;0.018;2023-02-28T09:42:03;3.17;;;1.00;;
42186;SDS011;27858;51.414;0.018;2023-02-28T09:47:13;4.38;;;1.23;;
42186;SDS011;27858;51.414;0.018;2023-02-28T09:52:43;4.43;;;1.55;;
42186;SDS011;27858;51.414;0.018;2023-02-28T09:55:20;2.88;;;1.67;;
42186;SDS011;27858;51.414;0.018;2023-02-28T09:58:03;9.98;;;1.77;;
42186;SDS011;27858;51.414;0.018;2023-02-28T10:00:34;2.13;;;1.20;;
42186;SDS011;27858;51.414;0.018;2023-02-28T10:06:03;4.10;;;1.25;;
42186;SDS011;27858;51.414;0.018;2023-02-28T10:08:41;7.10;;;2.08;;
42186;SDS011;27858;51.414;0.018;2023-02-28T10:11:32;3.58;;;1.98;;
42186;SDS011;27858;51.414;0.018;2023-02-28T10:14:11;4.63;;;2.08;;
42186;SDS011;27858;51.414;0.018;2023-02-28T10:16:48;4.43;;;1.42;;
42186;SDS011;27858;51.414;0.018;2023-02-28T10:19:21;2.08;;;1.58;;
42186;SDS011;27858;51.414;0.018;2023-02-28T10:21:59;3.97;;;1.10;;
42186;SDS011;27858;51.414;0.018;2023-02-28T10:24:34;4.70;;;1.55;;
42186;SDS011;27858;51.414;0.018;2023-02-28T10:27:13;3.28;;;1.88;;
42186;SDS011;27858;51.414;0.018;2023-02-28T10:29:44;4.78;;;1.98;;
42186;SDS011;27858;51.414;0.018;2023-02-28T10:32:23;6.47;;;1.85;;
42186;SDS011;27858;51.414;0.018;2023-02-28T10:35:27;6.72;;;1.65;;
42186;SDS011;27858;51.414;0.018;2023-02-28T10:37:48;5.80;;;1.58;;
42186;SDS011;27858;51.414;0.018;2023-02-28T10:43:02;6.55;;;1.38;;
42186;SDS011;27858;51.414;0.018;2023-02-28T10:45:34;8.70;;;1.77;;
42186;SDS011;27858;51.414;0.018;2023-02-28T10:48:05;1.75;;;1.05;;
42186;SDS011;27858;51.414;0.018;2023-02-28T10:50:53;5.85;;;0.80;;
42186;SDS011;27858;51.414;0.018;2023-02-28T10:58:33;1.02;;;0.50;;
42186;SDS011;27858;51.414;0.018;2023-02-28T11:04:18;1.33;;;0.47;;
42186;SDS011;27858;51.414;0.018;2023-02-28T11:06:48;2.20;;;0.80;;
42186;SDS011;27858;51.414;0.018;2023-02-28T11:09:32;3.33;;;0.70;;
42186;SDS011;27858;51.414;0.018;2023-02-28T11:12:02;4.38;;;0.95;;
42186;SDS011;27858;51.414;0.018;2023-02-28T11:15:18;2.33;;;0.57;;
42186;SDS011;27858;51.414;0.018;2023-02-28T11:17:24;1.00;;;0.60;;
42186;SDS011;27858;51.414;0.018;2023-02-28T11:19:55;0.98;;;0.52;;
42186;SDS011;27858;51.414;0.018;2023-02-28T11:22:25;1.60;;;0.70;;
42186;SDS011;27858;51.414;0.018;2023-02-28T11:24:55;4.68;;;1.10;;
42186;SDS011;27858;51.414;0.018;2023-02-28T11:29:58;0.98;;;0.60;;
42186;SDS011;27858;51.414;0.018;2023-02-28T11:32:26;1.42;;;0.80;;
42186;SDS011;27858;51.414;0.018;2023-02-28T11:35:01;3.30;;;0.57;;
42186;SDS011;27858;51.414;0.018;2023-02-28T11:37:37;1.23;;;0.60;;
42186;SDS011;27858;51.414;0.018;2023-02-28T11:40:08;3.90;;;1.58;;
42186;SDS011;27858;51.414;0.018;2023-02-28T11:42:44;3.15;;;0.73;;
42186;SDS011;27858;51.414;0.018;2023-02-28T11:50:54;3.60;;;1.27;;
42186;SDS011;27858;51.414;0.018;2023-02-28T11:56:23;2.70;;;1.00;;
42186;SDS011;27858;51.414;0.018;2023-02-28T12:01:59;1.33;;;0.68;;
42186;SDS011;27858;51.414;0.018;2023-02-28T12:15:25;3.13;;;1.00;;
42186;SDS011;27858;51.414;0.018;2023-02-28T12:21:05;3.65;;;2.33;;
42186;SDS011;27858;51.414;0.018;2023-02-28T12:26:34;3.10;;;0.90;;
42186;SDS011;27858;51.414;0.018;2023-02-28T12:31:41;2.78;;;1.17;;
42186;SDS011;27858;51.414;0.018;2023-02-28T12:34:18;2.85;;;1.67;;
42186;SDS011;27858;51.414;0.018;2023-02-28T12:36:53;3.63;;;1.95;;
42186;SDS011;27858;51.414;0.018;2023-02-28T12:39:26;4.00;;;1.30;;
42186;SDS011;27858;51.414;0.018;2023-02-28T12:42:11;1.83;;;1.02;;
42186;SDS011;27858;51.414;0.018;2023-02-28T12:44:52;2.85;;;0.93;;
42186;SDS011;27858;51.414;0.018;2023-02-28T12:47:24;4.05;;;1.08;;
42186;SDS011;27858;51.414;0.018;2023-02-28T12:49:52;1.60;;;1.23;;
42186;SDS011;27858;51.414;0.018;2023-02-28T12:52:31;1.50;;;0.88;;
42186;SDS011;27858;51.414;0.018;2023-02-28T12:57:50;2.50;;;1.20;;
42186;SDS011;27858;51.414;0.018;2023-02-28T13:00:35;1.58;;;1.20;;
42186;SDS011;27858;51.414;0.018;2023-02-28T13:14:20;1.23;;;0.75;;
42186;SDS011;27858;51.414;0.018;2023-02-28T13:16:56;2.13;;;1.23;;
42186;SDS011;27858;51.414;0.018;2023-02-28T13:19:29;1.55;;;1.00;;
42186;SDS011;27858;51.414;0.018;2023-02-28T13:21:59;2.80;;;1.42;;
42186;SDS011;27858;51.414;0.018;2023-02-28T13:24:41;1.20;;;0.88;;
42186;SDS011;27858;51.414;0.018;2023-02-28T13:29:42;2.67;;;1.05;;
42186;SDS011;27858;51.414;0.018;2023-02-28T13:35:08;2.92;;;1.00;;
42186;SDS011;27858;51.414;0.018;2023-02-28T13:37:34;1.02;;;0.80;;
42186;SDS011;27858;51.414;0.018;2023-02-28T13:40:26;1.40;;;0.98;;
42186;SDS011;27858;51.414;0.018;2023-02-28T13:43:03;1.15;;;1.05;;
42186;SDS011;27858;51.414;0.018;2023-02-28T13:45:35;2.83;;;0.98;;
42186;SDS011;27858;51.414;0.018;2023-02-28T13:48:15;4.13;;;1.65;;
42186;SDS011;27858;51.414;0.018;2023-02-28T13:50:45;1.80;;;1.10;;
42186;SDS011;27858;51.414;0.018;2023-02-28T14:01:44;2.05;;;0.73;;
42186;SDS011;27858;51.414;0.018;2023-02-28T14:07:17;1.75;;;0.88;;
42186;SDS011;27858;51.414;0.018;2023-02-28T14:09:49;1.40;;;1.13;;
42186;SDS011;27858;51.414;0.018;2023-02-28T14:20:30;0.57;;;0.50;;
42186;SDS011;27858;51.414;0.018;2023-02-28T14:34:04;1.75;;;0.73;;
42186;SDS011;27858;51.414;0.018;2023-02-28T14:36:47;1.23;;;0.80;;
42186;SDS011;27858;51.414;0.018;2023-02-28T14:39:20;2.95;;;0.40;;
42186;SDS011;27858;51.414;0.018;2023-02-28T14:41:50;1.60;;;0.80;;
42186;SDS011;27858;51.414;0.018;2023-02-28T14:44:24;0.93;;;0.50;;
42186;SDS011;27858;51.414;0.018;2023-02-28T14:46:53;2.95;;;0.73;;
42186;SDS011;27858;51.414;0.018;2023-02-28T14:54:29;2.40;;;0.40;;
42186;SDS011;27858;51.414;0.018;2023-02-28T14:56:56;1.10;;;0.50;;
42186;SDS011;27858;51.414;0.018;2023-02-28T14:59:27;1.02;;;0.50;;
42186;SDS011;27858;51.414;0.018;2023-02-28T15:02:21;0.75;;;0.75;;
42186;SDS011;27858;51.414;0.018;2023-02-28T15:05:34;16.08;;;0.85;;
42186;SDS011;27858;51.414;0.018;2023-02-28T15:07:43;7.40;;;1.70;;
42186;SDS011;27858;51.414;0.018;2023-02-28T15:10:16;2.78;;;0.90;;
42186;SDS011;27858;51.414;0.018;2023-02-28T15:15:26;1.77;;;0.60;;
42186;SDS011;27858;51.414;0.018;2023-02-28T15:21:00;2.15;;;0.70;;
42186;SDS011;27858;51.414;0.018;2023-02-28T15:23:30;0.60;;;0.50;;
42186;SDS011;27858;51.414;0.018;2023-02-28T15:25:58;3.75;;;0.90;;
42186;SDS011;27858;51.414;0.018;2023-02-28T15:28:26;6.53;;;0.95;;
42186;SDS011;27858;51.414;0.018;2023-02-28T15:30:56;1.33;;;0.95;;
42186;SDS011;27858;51.414;0.018;2023-02-28T15:33:33;0.80;;;0.57;;
42186;SDS011;27858;51.414;0.018;2023-02-28T15:36:05;2.65;;;0.32;;
42186;SDS011;27858;51.414;0.018;2023-02-28T15:38:38;1.83;;;0.60;;
42186;SDS011;27858;51.414;0.018;2023-02-28T15:41:05;0.50;;;0.40;;
42186;SDS011;27858;51.414;0.018;2023-02-28T15:43:47;0.50;;;0.40;;
42186;SDS011;27858;51.414;0.018;2023-02-28T15:46:13;1.55;;;0.80;;
42186;SDS011;27858;51.414;0.018;2023-02-28T15:48:49;0.30;;;0.30;;
42186;SDS011;27858;51.414;0.018;2023-02-28T15:51:27;0.90;;;0.60;;
42186;SDS011;27858;51.414;0.018;2023-02-28T15:54:04;2.13;;;0.60;;
42186;SDS011;27858;51.414;0.018;2023-02-28T15:56:35;0.67;;;0.50;;
42186;SDS011;27858;51.414;0.018;2023-02-28T15:59:18;1.00;;;0.68;;
42186;SDS011;27858;51.414;0.018;2023-02-28T16:02:01;0.90;;;0.38;;
42186;SDS011;27858;51.414;0.018;2023-02-28T16:07:32;0.38;;;0.38;;
42186;SDS011;27858;51.414;0.018;2023-02-28T16:10:00;0.47;;;0.40;;
42186;SDS011;27858;51.414;0.018;2023-02-28T16:12:28;0.70;;;0.52;;
42186;SDS011;27858;51.414;0.018;2023-02-28T16:14:58;0.40;;;0.40;;
42186;SDS011;27858;51.414;0.018;2023-02-28T16:17:31;1.95;;;1.08;;
42186;SDS011;27858;51.414;0.018;2023-02-28T16:20:00;0.90;;;0.67;;
42186;SDS011;27858;51.414;0.018;2023-02-28T16:22:27;1.35;;;0.50;;
42186;SDS011;27858;51.414;0.018;2023-02-28T16:24:54;1.17;;;0.90;;
42186;SDS011;27858;51.414;0.018;2023-02-28T16:27:39;1.73;;;0.32;;
42186;SDS011;27858;51.414;0.018;2023-02-28T16:30:06;2.42;;;0.68;;
42186;SDS011;27858;51.414;0.018;2023-02-28T16:32:39;0.50;;;0.35;;
42186;SDS011;27858;51.414;0.018;2023-02-28T16:35:09;1.00;;;0.52;;
42186;SDS011;27858;51.414;0.018;2023-02-28T16:37:36;1.77;;;0.80;;
42186;SDS011;27858;51.414;0.018;2023-02-28T16:40:03;0.47;;;0.47;;
42186;SDS011;27858;51.414;0.018;2023-02-28T16:42:30;0.63;;;0.52;;
42186;SDS011;27858;51.414;0.018;2023-02-28T16:44:58;0.50;;;0.50;;
42186;SDS011;27858;51.414;0.018;2023-02-28T16:47:24;1.25;;;0.77;;
42186;SDS011;27858;51.414;0.018;2023-02-28T16:49:52;0.63;;;0.57;;
42186;SDS011;27858;51.414;0.018;2023-02-28T16:52:19;0.90;;;0.70;;
42186;SDS011;27858;51.414;0.018;2023-02-28T16:54:46;3.25;;;0.65;;
42186;SDS011;27858;51.414;0.018;2023-02-28T16:57:17;1.13;;;0.50;;
42186;SDS011;27858;51.414;0.018;2023-02-28T16:59:47;1.17;;;0.63;;
42186;SDS011;27858;51.414;0.018;2023-02-28T17:02:17;0.55;;;0.45;;
42186;SDS011;27858;51.414;0.018;2023-02-28T17:04:47;2.15;;;0.70;;
42186;SDS011;27858;51.414;0.018;2023-02-28T17:07:15;0.65;;;0.50;;
42186;SDS011;27858;51.414;0.018;2023-02-28T17:09:43;1.02;;;0.40;;
42186;SDS011;27858;51.414;0.018;2023-02-28T17:12:11;0.95;;;0.63;;
42186;SDS011;27858;51.414;0.018;2023-02-28T17:14:38;0.63;;;0.63;;
42186;SDS011;27858;51.414;0.018;2023-02-28T17:17:05;3.40;;;0.68;;
42186;SDS011;27858;51.414;0.018;2023-02-28T17:19:33;0.63;;;0.63;;
42186;SDS011;27858;51.414;0.018;2023-02-28T17:22:02;0.82;;;0.82;;
42186;SDS011;27858;51.414;0.018;2023-02-28T17:24:29;1.38;;;0.60;;
42186;SDS011;27858;51.414;0.018;2023-02-28T17:26:56;3.45;;;1.10;;
42186;SDS011;27858;51.414;0.018;2023-02-28T17:29:23;2.05;;;1.20;;
42186;SDS011;27858;51.414;0.018;2023-02-28T17:31:51;2.75;;;0.57;;
42186;SDS011;27858;51.414;0.018;2023-02-28T17:34:17;0.60;;;0.40;;
42186;SDS011;27858;51.414;0.018;2023-02-28T17:36:46;2.03;;;0.80;;
42186;SDS011;27858;51.414;0.018;2023-02-28T17:39:15;0.63;;;0.63;;
42186;SDS011;27858;51.414;0.018;2023-02-28T17:41:53;0.75;;;0.70;;
42186;SDS011;27858;51.414;0.018;2023-02-28T17:44:21;2.05;;;0.70;;
42186;SDS011;27858;51.414;0.018;2023-02-28T17:46:50;4.03;;;0.77;;
42186;SDS011;27858;51.414;0.018;2023-02-28T17:49:18;1.45;;;0.82;;
42186;SDS011;27858;51.414;0.018;2023-02-28T17:51:45;3.63;;;0.82;;
42186;SDS011;27858;51.414;0.018;2023-02-28T17:54:12;1.33;;;0.60;;
42186;SDS011;27858;51.414;0.018;2023-02-28T17:56:40;2.72;;;1.20;;
42186;SDS011;27858;51.414;0.018;2023-02-28T17:59:09;0.73;;;0.60;;
42186;SDS011;27858;51.414;0.018;2023-02-28T18:01:37;1.80;;;0.75;;
42186;SDS011;27858;51.414;0.018;2023-02-28T18:04:04;1.20;;;0.60;;
42186;SDS011;27858;51.414;0.018;2023-02-28T18:06:35;1.45;;;0.73;;
42186;SDS011;27858;51.414;0.018;2023-02-28T18:09:16;4.00;;;0.70;;
42186;SDS011;27858;51.414;0.018;2023-02-28T18:14:19;0.75;;;0.40;;
42186;SDS011;27858;51.414;0.018;2023-02-28T18:16:49;1.20;;;0.75;;
42186;SDS011;27858;51.414;0.018;2023-02-28T18:19:17;1.30;;;0.93;;
42186;SDS011;27858;51.414;0.018;2023-02-28T18:21:44;1.38;;;0.70;;
42186;SDS011;27858;51.414;0.018;2023-02-28T18:24:15;1.00;;;0.90;;
42186;SDS011;27858;51.414;0.018;2023-02-28T18:26:44;1.27;;;0.90;;
42186;SDS011;27858;51.414;0.018;2023-02-28T18:29:18;1.45;;;0.73;;
42186;SDS011;27858;51.414;0.018;2023-02-28T18:31:47;1.50;;;0.50;;
42186;SDS011;27858;51.414;0.018;2023-02-28T18:34:15;1.38;;;0.70;;
42186;SDS011;27858;51.414;0.018;2023-02-28T18:36:42;0.57;;;0.57;;
42186;SDS011;27858;51.414;0.018;2023-02-28T18:39:08;1.17;;;0.90;;
42186;SDS011;27858;51.414;0.018;2023-02-28T18:41:37;1.95;;;0.70;;
42186;SDS011;27858;51.414;0.018;2023-02-28T18:44:04;2.80;;;0.50;;
42186;SDS011;27858;51.414;0.018;2023-02-28T18:46:44;1.70;;;0.82;;
42186;SDS011;27858;51.414;0.018;2023-02-28T18:49:11;1.48;;;0.60;;
42186;SDS011;27858;51.414;0.018;2023-02-28T18:51:38;0.73;;;0.45;;
42186;SDS011;27858;51.414;0.018;2023-02-28T18:54:10;0.88;;;0.80;;
42186;SDS011;27858;51.414;0.018;2023-02-28T18:56:37;3.03;;;1.27;;
42186;SDS011;27858;51.414;0.018;2023-02-28T18:59:04;3.70;;;0.90;;
42186;SDS011;27858;51.414;0.018;2023-02-28T19:01:32;2.35;;;1.02;;
42186;SDS011;27858;51.414;0.018;2023-02-28T19:04:00;1.42;;;0.63;;
42186;SDS011;27858;51.414;0.018;2023-02-28T19:06:28;1.33;;;0.75;;
42186;SDS011;27858;51.414;0.018;2023-02-28T19:08:57;1.17;;;0.82;;
42186;SDS011;27858;51.414;0.018;2023-02-28T19:11:26;1.15;;;0.75;;
42186;SDS011;27858;51.414;0.018;2023-02-28T19:13:53;1.48;;;1.00;;
42186;SDS011;27858;51.414;0.018;2023-02-28T19:16:21;3.80;;;1.00;;
42186;SDS011;27858;51.414;0.018;2023-02-28T19:18:48;1.60;;;0.98;;
42186;SDS011;27858;51.414;0.018;2023-02-28T19:21:16;1.15;;;0.60;;
42186;SDS011;27858;51.414;0.018;2023-02-28T19:23:44;0.85;;;0.77;;
42186;SDS011;27858;51.414;0.018;2023-02-28T19:26:12;1.50;;;0.93;;
42186;SDS011;27858;51.414;0.018;2023-02-28T19:28:40;2.22;;;1.27;;
42186;SDS011;27858;51.414;0.018;2023-02-28T19:31:11;2.33;;;1.70;;
42186;SDS011;27858;51.414;0.018;2023-02-28T19:33:40;0.90;;;0.80;;
42186;SDS011;27858;51.414;0.018;2023-02-28T19:36:08;1.38;;;0.82;;
42186;SDS011;27858;51.414;0.018;2023-02-28T19:38:38;2.38;;;1.15;;
42186;SDS011;27858;51.414;0.018;2023-02-28T19:41:06;1.73;;;0.73;;
42186;SDS011;27858;51.414;0.018;2023-02-28T19:43:35;1.73;;;0.95;;
42186;SDS011;27858;51.414;0.018;2023-02-28T19:46:02;3.92;;;0.95;;
42186;SDS011;27858;51.414;0.018;2023-02-28T19:48:31;1.23;;;0.95;;
42186;SDS011;27858;51.414;0.018;2023-02-28T19:51:06;4.25;;;1.20;;
42186;SDS011;27858;51.414;0.018;2023-02-28T19:53:38;1.58;;;1.20;;
42186;SDS011;27858;51.414;0.018;2023-02-28T19:56:07;1.92;;;1.02;;
42186;SDS011;27858;51.414;0.018;2023-02-28T19:58:36;4.60;;;1.23;;
42186;SDS011;27858;51.414;0.018;2023-02-28T20:03:34;1.13;;;0.80;;
42186;SDS011;27858;51.414;0.018;2023-02-28T20:06:03;1.85;;;1.25;;
42186;SDS011;27858;51.414;0.018;2023-02-28T20:08:35;1.10;;;0.80;;
42186;SDS011;27858;51.414;0.018;2023-02-28T20:11:05;3.25;;;1.25;;
42186;SDS011;27858;51.414;0.018;2023-02-28T20:13:34;2.42;;;1.13;;
42186;SDS011;27858;51.414;0.018;2023-02-28T20:16:02;2.50;;;1.73;;
42186;SDS011;27858;51.414;0.018;2023-02-28T20:18:31;2.20;;;1.00;;
42186;SDS011;27858;51.414;0.018;2023-02-28T20:20:58;6.80;;;1.35;;
42186;SDS011;27858;51.414;0.018;2023-02-28T20:23:27;2.33;;;1.38;;
42186;SDS011;27858;51.414;0.018;2023-02-28T20:25:57;2.05;;;1.20;;
42186;SDS011;27858;51.414;0.018;2023-02-28T20:28:25;4.05;;;1.52;;
42186;SDS011;27858;51.414;0.018;2023-02-28T20:30:52;1.77;;;1.52;;
42186;SDS011;27858;51.414;0.018;2023-02-28T20:33:19;2.58;;;1.98;;
42186;SDS011;27858;51.414;0.018;2023-02-28T20:35:46;3.90;;;1.75;;
42186;SDS011;27858;51.414;0.018;2023-02-28T20:38:14;2.30;;;1.70;;
42186;SDS011;27858;51.414;0.018;2023-02-28T20:40:41;3.85;;;2.10;;
42186;SDS011;27858;51.414;0.018;2023-02-28T20:43:07;3.08;;;2.00;;
42186;SDS011;27858;51.414;0.018;2023-02-28T20:45:34;3.63;;;2.05;;
42186;SDS011;27858;51.414;0.018;2023-02-28T20:48:01;4.10;;;1.92;;
42186;SDS011;27858;51.414;0.018;2023-02-28T20:50:28;20.80;;;3.83;;
42186;SDS011;27858;51.414;0.018;2023-02-28T20:52:54;4.97;;;2.80;;
42186;SDS011;27858;51.414;0.018;2023-02-28T20:55:21;6.63;;;2.83;;
42186;SDS011;27858;51.414;0.018;2023-02-28T20:57:48;7.32;;;3.13;;
42186;SDS011;27858;51.414;0.018;2023-02-28T21:00:15;4.05;;;2.88;;
42186;SDS011;27858;51.414;0.018;2023-02-28T21:02:45;5.05;;;3.53;;
42186;SDS011;27858;51.414;0.018;2023-02-28T21:05:12;7.43;;;3.67;;
42186;SDS011;27858;51.414;0.018;2023-02-28T21:07:39;5.22;;;3.65;;
42186;SDS011;27858;51.414;0.018;2023-02-28T21:10:08;7.38;;;3.88;;